Flugplatz Flugplatz Reutte-Höfen

Für Flugplatz Reutte-Höfen sind keine METAR/TAF Berichte vorhanden.
Es werden die Flugwettermeldungen vom Flugplatz Altenstadt Army Airfield in 42 km Entfernung angezeigt.

Bericht für ETHA

vom 14.04. um 23:20 UTC

Wind 6 kt aus 200°

Sichtweite 9700 m

Temperatur 15°C

Taupunkt 6°C

Luftfeuchtigkeit 55%

Luftdruck 1016 hPa

ETHA 142320Z AUTO 20006KT 9999 // ////// 15/06 Q1016 ///
Keine Prognose (TAF) verfügbar.
Impressum